MZ-0037 weather

Macossa Airport
Macossa, Manica Province, Mozambique

Public forecast

Using degrees Celsius for public forecast. Weather courtesy of forecast.io.

METAR (pilot weather report)

Closest report is Chimoio Airport, 81.9 nm (151.7 km) SSW. Retrieved 2019/05/19 16:00 UTC (27 minutes ago):

FQCH 191600Z 16006KT 9999 FEW015 19/14 Q1023

TAF (pilot weather forecast)

Closest forecast is Chimoio Airport, 81.9 nm (151.7 km) SSW. Retrieved 2019/05/19 12:00 UTC (4 hours ago):

TAF FQCH 191000Z 1912/2012 10008KT 9999 BKN015 TX25/1913Z TN16/2003Z BECMG 1918/1920 23010KT BECMG 2006/2008 34008KT